Time;durP1;ratioP1;P1;durP2;ratioP2;P2;SDS_P1;SDS_P2;PMS_P1;PMS_P2;Temp;Humidity;BMP_temperature;BMP_pressure;BME280_temperature;BME280_humidity;BME280_pressure;Samples;Min_cycle;Max_cycle;Signal;HPM_P1;HPM_P2
2022/05/03 00:01:21;;;;;;;2.50;2.30;;;21.70;78.00;;;;;;5913332;29;89076;-72
2022/05/03 00:04:30;;;;;;;2.42;2.20;;;21.80;78.00;;;;;;5925344;29;89487;-72
2022/05/03 00:07:39;;;;;;;2.30;2.10;;;21.80;77.90;;;;;;5913055;29;89403;-72
2022/05/03 00:10:52;;;;;;;2.42;2.22;;;21.70;77.90;;;;;;5928027;29;89183;-72
2022/05/03 00:14:04;;;;;;;2.28;2.17;;;21.80;77.90;;;;;;5913328;29;87933;-73
2022/05/03 00:17:07;;;;;;;2.90;2.30;;;21.80;77.90;;;;;;5924679;29;88436;-72
2022/05/03 00:20:10;;;;;;;2.45;2.00;;;21.80;77.90;;;;;;5914944;29;88987;-72
2022/05/03 00:23:13;;;;;;;2.30;2.10;;;21.70;77.80;;;;;;5915181;29;89403;-72
2022/05/03 00:26:18;;;;;;;2.30;2.10;;;21.70;77.80;;;;;;5914403;29;90047;-72
2022/05/03 00:29:20;;;;;;;2.50;2.13;;;21.70;77.70;;;;;;5914743;29;89385;-71
2022/05/03 00:32:23;;;;;;;2.38;2.17;;;21.70;77.70;;;;;;5914159;29;89266;-73
2022/05/03 00:35:27;;;;;;;2.50;2.30;;;21.70;77.70;;;;;;5918194;29;89340;-72
2022/05/03 00:41:59;;;;;;;2.20;2.00;;;21.70;77.70;;;;;;5912754;29;87357;-72
2022/05/03 00:45:05;;;;;;;2.10;2.00;;;21.70;77.70;;;;;;5912318;29;89067;-72
2022/05/03 00:48:22;;;;;;;2.28;2.10;;;21.70;77.60;;;;;;5912814;29;87510;-72
2022/05/03 00:51:29;;;;;;;2.95;2.65;;;21.70;77.60;;;;;;5912327;29;89169;-72
2022/05/03 00:54:44;;;;;;;2.72;2.53;;;21.70;77.60;;;;;;5912302;29;87827;-73
2022/05/03 00:58:04;;;;;;;3.05;2.75;;;21.70;77.60;;;;;;5914484;29;89039;-72
2022/05/03 01:01:17;;;;;;;3.28;2.95;;;21.70;77.60;;;;;;5912396;29;88248;-72
2022/05/03 01:04:26;;;;;;;3.40;3.10;;;21.70;77.50;;;;;;5912486;29;89119;-72
2022/05/03 01:07:33;;;;;;;3.10;2.90;;;21.70;77.50;;;;;;5908185;29;89148;-72
2022/05/03 01:10:40;;;;;;;3.10;2.90;;;21.70;77.50;;;;;;5924908;29;89142;-73
2022/05/03 01:13:52;;;;;;;3.95;3.42;;;21.70;77.40;;;;;;5908096;29;89275;-71
2022/05/03 01:17:00;;;;;;;3.95;3.50;;;21.70;77.40;;;;;;5914003;29;89148;-72
2022/05/03 01:20:05;;;;;;;4.28;3.88;;;21.70;77.40;;;;;;5924293;29;87224;-74
2022/05/03 01:23:52;;;;;;;4.38;3.97;;;21.70;77.40;;;;;;5913951;29;89144;-73
2022/05/03 01:27:33;;;;;;;4.13;3.83;;;21.70;77.40;;;;;;5913617;29;89516;-73
2022/05/03 01:30:56;;;;;;;4.70;4.30;;;21.70;77.40;;;;;;5907201;29;90015;-73
2022/05/03 01:34:02;;;;;;;5.00;4.45;;;21.70;77.40;;;;;;5911665;29;88844;-72
2022/05/03 01:37:15;;;;;;;5.15;4.72;;;21.60;77.30;;;;;;5912367;29;89150;-73
2022/05/03 01:40:24;;;;;;;5.25;4.75;;;21.70;77.30;;;;;;5923067;29;89098;-73
2022/05/03 01:43:45;;;;;;;5.18;4.68;;;21.70;77.30;;;;;;5912264;29;89193;-72
2022/05/03 01:46:54;;;;;;;5.85;5.00;;;21.60;77.20;;;;;;5907522;29;89545;-73
2022/05/03 01:50:19;;;;;;;4.82;4.40;;;21.70;77.40;;;;;;5912954;29;89291;-72
2022/05/03 01:53:30;;;;;;;6.43;5.82;;;21.70;77.40;;;;;;5916928;29;88388;-73
2022/05/03 01:56:46;;;;;;;5.55;5.05;;;21.60;77.30;;;;;;5905104;29;89169;-73
2022/05/03 02:00:04;;;;;;;6.30;5.70;;;21.60;77.20;;;;;;5916212;29;87927;-73
2022/05/03 02:03:22;;;;;;;7.95;6.00;;;21.60;77.20;;;;;;5915720;29;88969;-73
2022/05/03 02:06:37;;;;;;;6.53;5.93;;;21.70;78.10;;;;;;5917204;29;89331;-73
2022/05/03 02:09:53;;;;;;;6.60;6.00;;;21.60;77.20;;;;;;5916983;29;89592;-73
2022/05/03 02:13:00;;;;;;;6.68;6.07;;;21.60;77.20;;;;;;5917940;29;89220;-73
2022/05/03 02:16:09;;;;;;;7.25;6.22;;;21.60;77.20;;;;;;5927291;29;89153;-73
2022/05/03 02:19:39;;;;;;;7.45;6.75;;;21.60;77.20;;;;;;5927359;29;89092;-73
2022/05/03 02:23:21;;;;;;;7.30;6.60;;;21.60;77.10;;;;;;5920823;29;89110;-72
2022/05/03 02:26:37;;;;;;;8.40;7.10;;;21.60;77.10;;;;;;5894765;29;88853;-73
2022/05/03 02:29:46;;;;;;;7.75;7.03;;;21.60;77.10;;;;;;5916617;29;89195;-72
2022/05/03 02:32:58;;;;;;;8.05;7.25;;;21.60;77.10;;;;;;5916647;29;89042;-73
2022/05/03 02:36:03;;;;;;;8.30;7.50;;;21.60;77.10;;;;;;5917996;29;88630;-72
2022/05/03 02:39:06;;;;;;;8.10;7.30;;;21.60;77.10;;;;;;5915251;29;87891;-73
2022/05/03 02:42:11;;;;;;;8.07;7.28;;;21.60;77.40;;;;;;5914212;29;89064;-73
2022/05/03 02:45:14;;;;;;;8.45;7.65;;;21.60;77.10;;;;;;5904250;29;89103;-72
2022/05/03 02:48:23;;;;;;;8.55;7.65;;;21.60;77.10;;;;;;5916062;29;88016;-72
2022/05/03 02:51:31;;;;;;;8.23;7.43;;;21.60;77.00;;;;;;5926228;29;89172;-73
2022/05/03 02:54:40;;;;;;;8.82;8.02;;;21.60;77.00;;;;;;5914365;29;89072;-74
2022/05/03 02:57:55;;;;;;;9.48;8.07;;;21.60;77.00;;;;;;5926660;29;88101;-73
2022/05/03 03:04:38;;;;;;;9.40;8.50;;;21.60;77.00;;;;;;5915856;29;88142;-72
2022/05/03 03:07:47;;;;;;;8.38;7.38;;;21.60;76.90;;;;;;5926114;29;89867;-73
2022/05/03 03:10:53;;;;;;;8.65;7.75;;;21.60;76.90;;;;;;5915089;29;88121;-73
2022/05/03 03:14:10;;;;;;;8.57;7.78;;;21.60;76.90;;;;;;5914345;29;90818;-72
2022/05/03 03:17:13;;;;;;;8.77;7.88;;;21.60;76.90;;;;;;5925522;29;89104;-73
2022/05/03 03:20:16;;;;;;;8.88;8.07;;;21.60;76.90;;;;;;5921502;29;89017;-72
2022/05/03 03:23:24;;;;;;;9.32;8.43;;;21.60;76.90;;;;;;5925751;29;89090;-74
2022/05/03 03:26:31;;;;;;;8.57;7.75;;;21.50;76.90;;;;;;5926188;29;88018;-73
2022/05/03 03:29:33;;;;;;;8.38;7.57;;;21.60;76.90;;;;;;5914159;29;88393;-73
2022/05/03 03:32:39;;;;;;;9.23;8.32;;;21.60;76.90;;;;;;5913463;29;89132;-74
2022/05/03 03:35:43;;;;;;;9.25;8.35;;;21.60;76.90;;;;;;5913593;29;89215;-73
2022/05/03 03:38:47;;;;;;;8.95;8.07;;;21.50;76.90;;;;;;5902656;29;89900;-74
2022/05/03 03:41:49;;;;;;;8.70;7.90;;;21.60;76.90;;;;;;5915653;29;89200;-73
2022/05/03 03:44:54;;;;;;;9.13;8.30;;;21.60;76.90;;;;;;5924118;29;88346;-73
2022/05/03 03:47:57;;;;;;;8.90;8.00;;;21.60;76.90;;;;;;5914340;29;89178;-73
2022/05/03 03:51:00;;;;;;;9.05;8.15;;;21.60;76.90;;;;;;5918768;29;89269;-73
2022/05/03 03:54:05;;;;;;;8.93;8.10;;;21.60;76.90;;;;;;5919769;29;89255;-74
2022/05/03 03:57:08;;;;;;;8.50;7.70;;;21.60;76.80;;;;;;5925595;29;89198;-73
2022/05/03 04:00:13;;;;;;;8.65;7.85;;;21.60;76.90;;;;;;5914377;29;88362;-74
2022/05/03 04:03:16;;;;;;;7.85;7.15;;;21.50;76.70;;;;;;5911230;29;89347;-73
2022/05/03 04:06:18;;;;;;;8.02;7.30;;;21.50;76.80;;;;;;5914880;29;89084;-74
2022/05/03 04:09:22;;;;;;;8.60;7.80;;;21.60;76.70;;;;;;5913965;29;90137;-75
2022/05/03 04:12:24;;;;;;;8.23;7.43;;;21.50;76.70;;;;;;5913819;29;88185;-73
2022/05/03 04:15:26;;;;;;;8.20;7.40;;;21.50;76.70;;;;;;5902789;29;89136;-72
2022/05/03 04:18:44;;;;;;;8.93;8.02;;;21.60;76.70;;;;;;5923372;29;89107;-74
2022/05/03 04:21:47;;;;;;;8.60;7.80;;;21.50;76.70;;;;;;5924615;29;89298;-74
2022/05/03 04:24:52;;;;;;;8.55;7.75;;;21.50;76.70;;;;;;5910322;29;89149;-75
2022/05/03 04:27:54;;;;;;;8.10;7.30;;;21.50;76.70;;;;;;5902367;29;89698;-73
2022/05/03 04:30:56;;;;;;;8.05;7.22;;;21.50;76.70;;;;;;5903354;29;88533;-73
2022/05/03 04:34:00;;;;;;;7.60;6.90;;;21.50;76.60;;;;;;5921077;29;89099;-75
2022/05/03 04:37:02;;;;;;;8.07;7.28;;;21.50;76.90;;;;;;5907580;29;89021;-76
2022/05/03 04:40:07;;;;;;;8.27;7.40;;;21.60;80.50;;;;;;5903816;29;90262;-76
2022/05/03 04:43:09;;;;;;;9.80;7.40;;;21.60;82.50;;;;;;5909990;29;89223;-75
2022/05/03 04:46:11;;;;;;;8.30;7.38;;;21.60;81.50;;;;;;5914676;29;89123;-74
2022/05/03 04:49:13;;;;;;;8.13;7.32;;;21.70;80.70;;;;;;5913922;29;89057;-74
2022/05/03 04:52:15;;;;;;;8.07;7.28;;;21.70;79.30;;;;;;5901964;29;89199;-73
2022/05/03 04:55:18;;;;;;;7.72;7.03;;;21.70;78.60;;;;;;5905514;29;89079;-73
2022/05/03 04:58:20;;;;;;;7.53;6.80;;;21.70;78.40;;;;;;5921646;29;88802;-74
2022/05/03 05:01:24;;;;;;;7.63;6.75;;;21.70;78.00;;;;;;5918889;29;88326;-73
2022/05/03 05:04:26;;;;;;;8.18;6.75;;;21.70;78.00;;;;;;5920000;29;89040;-73
2022/05/03 05:07:28;;;;;;;8.60;7.07;;;21.70;77.90;;;;;;5912276;29;88062;-74
2022/05/03 05:10:32;;;;;;;7.03;6.43;;;21.70;77.90;;;;;;5923157;29;90029;-74
2022/05/03 05:13:35;;;;;;;7.95;7.07;;;21.70;77.80;;;;;;5924565;29;89178;-73
2022/05/03 05:16:37;;;;;;;7.43;6.55;;;21.70;77.70;;;;;;5911717;29;89459;-74
2022/05/03 05:19:38;;;;;;;6.85;6.10;;;21.70;77.60;;;;;;5912421;29;89136;-75
2022/05/03 05:22:42;;;;;;;7.30;6.60;;;21.70;77.40;;;;;;5912909;29;89481;-73
2022/05/03 05:25:46;;;;;;;7.90;6.50;;;21.70;77.30;;;;;;5903676;29;87813;-75
2022/05/03 05:28:48;;;;;;;6.90;6.30;;;21.70;77.20;;;;;;5905673;29;89053;-75
2022/05/03 05:31:50;;;;;;;7.13;6.43;;;21.80;77.10;;;;;;5918194;29;88476;-75
2022/05/03 05:34:52;;;;;;;6.80;6.20;;;21.70;77.10;;;;;;5924139;29;89160;-74
2022/05/03 05:37:54;;;;;;;6.88;6.22;;;21.70;77.00;;;;;;5923417;29;89407;-74
2022/05/03 05:40:58;;;;;;;6.70;5.85;;;21.70;77.10;;;;;;5917167;29;89992;-74
2022/05/03 05:44:03;;;;;;;6.40;5.80;;;21.70;77.00;;;;;;5905321;29;89181;-74
2022/05/03 05:47:06;;;;;;;7.00;6.30;;;21.70;76.90;;;;;;5917405;29;89310;-73
2022/05/03 05:50:08;;;;;;;6.38;5.78;;;21.70;77.00;;;;;;5917476;29;87935;-74
2022/05/03 05:56:31;;;;;;;6.72;6.13;;;21.70;76.90;;;;;;5916178;29;87363;-72
2022/05/03 05:59:33;;;;;;;6.55;5.82;;;21.70;77.00;;;;;;5915912;29;89197;-73
2022/05/03 06:02:36;;;;;;;6.38;5.80;;;21.70;77.00;;;;;;5927932;29;88375;-72
2022/05/03 06:05:38;;;;;;;6.22;5.63;;;21.70;76.90;;;;;;5915589;29;90425;-74
2022/05/03 06:08:40;;;;;;;6.57;5.97;;;21.70;77.70;;;;;;5914939;29;89078;-73
2022/05/03 06:11:44;;;;;;;6.90;5.68;;;21.70;76.80;;;;;;5914596;29;90036;-74
2022/05/03 06:14:46;;;;;;;6.22;5.53;;;21.80;76.80;;;;;;5915281;29;89112;-74
2022/05/03 06:17:48;;;;;;;5.85;5.35;;;21.70;76.70;;;;;;5926219;29;89036;-73
2022/05/03 06:20:50;;;;;;;6.00;5.50;;;21.80;76.70;;;;;;5914117;29;89137;-73
2022/05/03 06:23:52;;;;;;;6.10;5.60;;;21.80;76.70;;;;;;5912785;29;87958;-73
2022/05/03 06:26:56;;;;;;;6.13;5.53;;;21.80;76.70;;;;;;5915078;29;89163;-73
2022/05/03 06:29:58;;;;;;;6.25;5.65;;;21.80;76.70;;;;;;5915020;29;89091;-70
2022/05/03 06:33:00;;;;;;;5.90;5.40;;;21.80;76.70;;;;;;5915223;29;88533;-73
2022/05/03 06:36:02;;;;;;;5.97;5.38;;;21.70;76.60;;;;;;5914852;29;89060;-72
2022/05/03 06:39:04;;;;;;;6.30;5.75;;;21.80;76.70;;;;;;5914567;29;87926;-73
2022/05/03 06:42:09;;;;;;;6.35;5.55;;;21.70;76.70;;;;;;5930608;29;89981;-73
2022/05/03 06:45:12;;;;;;;5.60;5.10;;;21.70;76.70;;;;;;5935264;29;89145;-72
2022/05/03 06:48:15;;;;;;;5.57;5.07;;;21.70;76.70;;;;;;5921951;29;89107;-72
2022/05/03 06:51:17;;;;;;;5.65;5.13;;;21.80;76.80;;;;;;5930870;29;88013;-72
2022/05/03 06:54:19;;;;;;;5.80;5.30;;;21.70;76.70;;;;;;5914713;29;89093;-71
2022/05/03 06:57:22;;;;;;;5.68;5.18;;;21.80;76.70;;;;;;5914538;29;89437;-72
2022/05/03 07:00:24;;;;;;;5.40;4.90;;;21.80;76.70;;;;;;5928540;29;89213;-72
2022/05/03 07:03:26;;;;;;;5.72;5.22;;;21.80;76.60;;;;;;5916821;29;88346;-72
2022/05/03 07:06:28;;;;;;;5.40;4.90;;;21.80;76.60;;;;;;5926212;29;89077;-73
2022/05/03 07:09:30;;;;;;;5.00;4.57;;;21.80;76.60;;;;;;5916356;29;87950;-73
2022/05/03 07:12:34;;;;;;;5.43;4.80;;;21.80;76.60;;;;;;5914697;29;90043;-72
2022/05/03 07:15:36;;;;;;;5.18;4.68;;;21.80;76.60;;;;;;5928348;29;89111;-71
2022/05/03 07:25:17;;;;;;;5.05;4.60;;;21.80;76.60;;;;;;5925030;29;87350;-72
2022/05/03 07:28:21;;;;;;;4.93;4.53;;;21.70;76.60;;;;;;5921179;29;87895;-72
2022/05/03 07:31:23;;;;;;;5.88;4.53;;;21.80;76.70;;;;;;5916027;29;89079;-73
2022/05/03 07:34:25;;;;;;;4.88;4.47;;;21.80;76.70;;;;;;5904041;29;88282;-72
2022/05/03 07:37:27;;;;;;;5.03;4.63;;;21.80;76.70;;;;;;5903298;29;89103;-72
2022/05/03 07:40:29;;;;;;;4.82;4.43;;;21.80;76.80;;;;;;5903511;29;89146;-70
2022/05/03 07:43:32;;;;;;;4.78;4.28;;;21.70;76.70;;;;;;5914665;29;89092;-72
2022/05/03 07:46:34;;;;;;;4.85;4.40;;;21.80;76.80;;;;;;5914829;29;88991;-72
2022/05/03 07:49:36;;;;;;;5.15;4.65;;;21.80;76.70;;;;;;5922373;29;89098;-72
2022/05/03 07:52:39;;;;;;;4.75;4.35;;;21.80;76.70;;;;;;5920901;29;88003;-72
2022/05/03 07:55:44;;;;;;;6.03;4.82;;;21.80;76.70;;;;;;5915352;29;88093;-72
2022/05/03 07:58:48;;;;;;;4.93;4.47;;;21.80;76.70;;;;;;5914846;29;89202;-72
2022/05/03 08:02:09;;;;;;;4.55;4.15;;;21.80;76.70;;;;;;5914712;29;89201;-72
2022/05/03 08:05:29;;;;;;;4.97;4.57;;;21.80;76.70;;;;;;5915591;29;88728;-73
2022/05/03 08:08:31;;;;;;;4.85;4.45;;;21.80;76.70;;;;;;5914815;29;88435;-72
2022/05/03 08:11:33;;;;;;;4.90;4.50;;;21.80;76.70;;;;;;5902945;29;88998;-72
2022/05/03 08:14:36;;;;;;;5.30;4.80;;;21.70;76.70;;;;;;5902570;29;90073;-73
2022/05/03 08:17:38;;;;;;;5.18;4.78;;;21.80;76.80;;;;;;5916117;29;89082;-73
2022/05/03 08:20:40;;;;;;;5.60;5.10;;;21.80;76.80;;;;;;5925476;29;89281;-74
2022/05/03 08:23:42;;;;;;;5.82;5.32;;;21.80;76.80;;;;;;5925055;29;89100;-73
2022/05/03 08:26:44;;;;;;;5.55;5.05;;;21.80;76.90;;;;;;5924627;29;89123;-72
2022/05/03 08:29:48;;;;;;;5.45;4.95;;;21.70;76.80;;;;;;5912867;29;89142;-73
2022/05/03 08:32:50;;;;;;;5.88;5.38;;;21.80;76.90;;;;;;5913091;29;89123;-73
2022/05/03 08:35:52;;;;;;;5.93;5.43;;;21.80;76.90;;;;;;5911627;29;88403;-73
2022/05/03 08:42:15;;;;;;;6.30;5.70;;;21.80;76.80;;;;;;5913976;29;87372;-73
2022/05/03 08:45:20;;;;;;;5.95;5.40;;;21.80;76.70;;;;;;5913840;29;90471;-72
2022/05/03 08:48:28;;;;;;;6.47;5.88;;;21.80;76.70;;;;;;5913282;29;89157;-73
2022/05/03 08:51:32;;;;;;;6.82;6.22;;;21.80;76.70;;;;;;5928240;29;89375;-71
2022/05/03 08:54:36;;;;;;;6.65;6.05;;;21.80;76.70;;;;;;5924495;29;89125;-72
2022/05/03 08:57:38;;;;;;;6.75;6.15;;;21.80;76.80;;;;;;5924599;29;89158;-72
2022/05/03 09:00:43;;;;;;;6.90;6.30;;;21.80;76.80;;;;;;5905217;29;87880;-72
2022/05/03 09:03:45;;;;;;;7.05;6.45;;;21.80;76.80;;;;;;5913716;29;89124;-71
2022/05/03 09:06:50;;;;;;;7.38;6.68;;;21.80;76.90;;;;;;5914493;29;88806;-73
2022/05/03 09:09:53;;;;;;;7.22;6.53;;;21.80;76.90;;;;;;5901965;29;89059;-72
2022/05/03 09:13:12;;;;;;;7.40;6.70;;;21.80;76.90;;;;;;5913917;29;89201;-72
2022/05/03 09:16:16;;;;;;;7.18;6.53;;;21.80;76.90;;;;;;5916815;29;90117;-72
2022/05/03 09:19:25;;;;;;;7.18;6.57;;;21.80;76.90;;;;;;5912296;29;89067;-73
2022/05/03 09:25:43;;;;;;;7.63;6.93;;;21.80;76.90;;;;;;5902660;29;87674;-72
2022/05/03 09:28:50;;;;;;;7.80;7.10;;;21.80;76.90;;;;;;5913550;29;89500;-71
2022/05/03 09:31:53;;;;;;;8.40;7.70;;;21.80;76.90;;;;;;5913620;29;89126;-73
2022/05/03 09:34:55;;;;;;;7.70;7.00;;;21.80;76.90;;;;;;5913775;29;89105;-71
2022/05/03 09:37:57;;;;;;;8.05;7.28;;;21.80;76.90;;;;;;5902027;29;88340;-71
2022/05/03 09:41:14;;;;;;;7.60;6.90;;;21.80;76.80;;;;;;5913241;29;89279;-72
2022/05/03 09:44:15;;;;;;;7.88;7.18;;;21.80;76.80;;;;;;5901200;29;89575;-70
2022/05/03 09:47:20;;;;;;;8.30;7.60;;;21.80;76.80;;;;;;5912453;29;90037;-72
2022/05/03 09:50:27;;;;;;;8.07;7.38;;;21.80;76.80;;;;;;5917646;29;89116;-73
2022/05/03 09:53:29;;;;;;;7.75;7.05;;;21.80;76.90;;;;;;5923766;29;87105;-72
2022/05/03 09:56:34;;;;;;;8.18;7.47;;;21.80;76.90;;;;;;5923922;29;89346;-72
2022/05/03 09:59:37;;;;;;;8.20;7.50;;;21.80;76.90;;;;;;5912551;29;89202;-71
2022/05/03 10:02:43;;;;;;;8.82;8.02;;;21.80;76.90;;;;;;5913385;29;89483;-72
2022/05/03 10:05:46;;;;;;;8.75;7.95;;;21.80;76.90;;;;;;5901172;29;89237;-72
2022/05/03 10:08:51;;;;;;;8.13;7.43;;;21.80;77.00;;;;;;5913845;29;88390;-72
2022/05/03 10:11:54;;;;;;;8.27;7.55;;;21.80;76.90;;;;;;5920835;29;88050;-73
2022/05/03 10:14:56;;;;;;;8.48;7.75;;;21.80;76.90;;;;;;5915385;29;89056;-72
2022/05/03 10:21:41;;;;;;;8.50;7.70;;;21.80;77.00;;;;;;5906681;29;87352;-72
2022/05/03 10:24:56;;;;;;;8.88;8.13;;;21.80;76.90;;;;;;5916666;29;89369;-73
2022/05/03 10:27:59;;;;;;;7.80;7.15;;;21.80;76.90;;;;;;5916598;29;89249;-72
2022/05/03 10:31:13;;;;;;;8.18;7.47;;;21.80;76.90;;;;;;5916552;29;89060;-73
2022/05/03 10:34:56;;;;;;;8.40;7.70;;;21.80;76.90;;;;;;5917000;29;87953;-72
2022/05/03 10:38:06;;;;;;;8.45;7.75;;;21.80;76.90;;;;;;5914916;29;89188;-72
2022/05/03 10:41:09;;;;;;;8.02;7.32;;;21.80;76.90;;;;;;5915695;29;87279;-72
2022/05/03 10:44:46;;;;;;;8.88;8.07;;;21.80;76.90;;;;;;5914677;29;87795;-71
2022/05/03 10:47:49;;;;;;;8.40;7.70;;;21.80;76.90;;;;;;5927023;29;88048;-72
2022/05/03 10:50:53;;;;;;;8.80;8.00;;;21.80;76.90;;;;;;5931123;29;90056;-72
2022/05/03 10:54:00;;;;;;;8.55;7.85;;;21.80;76.90;;;;;;5914944;29;89433;-71
2022/05/03 10:57:06;;;;;;;8.82;8.02;;;21.80;76.90;;;;;;5911267;29;88289;-72
2022/05/03 11:00:10;;;;;;;8.13;7.43;;;21.80;77.00;;;;;;5906628;29;88941;-72
2022/05/03 11:03:22;;;;;;;8.35;7.60;;;21.80;77.10;;;;;;5925048;29;89030;-72
2022/05/03 11:06:49;;;;;;;8.65;7.95;;;21.80;77.00;;;;;;5916467;29;89183;-72
2022/05/03 11:09:51;;;;;;;8.65;7.95;;;21.80;76.90;;;;;;5915774;29;89697;-72
2022/05/03 11:12:53;;;;;;;8.20;7.50;;;21.90;77.00;;;;;;5916324;29;88107;-70
2022/05/03 11:16:21;;;;;;;8.43;7.72;;;21.80;76.90;;;;;;5916056;29;89173;-71
2022/05/03 11:19:25;;;;;;;8.93;8.13;;;21.80;76.90;;;;;;5913838;29;89341;-72
2022/05/03 11:22:31;;;;;;;8.57;7.85;;;21.80;76.90;;;;;;5903946;29;90070;-71
2022/05/03 11:25:39;;;;;;;8.50;7.75;;;21.80;76.90;;;;;;5915372;29;89036;-72
2022/05/03 11:28:41;;;;;;;8.90;8.10;;;21.80;76.90;;;;;;5915720;29;89051;-71
2022/05/03 11:31:48;;;;;;;8.35;7.65;;;21.90;76.90;;;;;;5909752;29;89076;-72
2022/05/03 11:34:50;;;;;;;8.18;7.47;;;21.80;76.90;;;;;;5920144;29;88037;-72
2022/05/03 11:37:55;;;;;;;8.52;7.82;;;21.80;76.90;;;;;;5903251;29;89096;-72
2022/05/03 11:40:57;;;;;;;8.45;7.65;;;21.90;76.90;;;;;;5914996;29;89369;-72
2022/05/03 11:43:59;;;;;;;8.15;7.45;;;21.90;77.10;;;;;;5915414;29;88307;-73
2022/05/03 11:47:04;;;;;;;8.50;7.80;;;21.80;77.00;;;;;;5918637;29;89229;-71
2022/05/03 11:50:07;;;;;;;8.45;7.72;;;21.90;78.40;;;;;;5922265;29;89117;-72
2022/05/03 11:56:35;;;;;;;8.45;7.65;;;21.90;78.80;;;;;;5926710;29;87258;-70
2022/05/03 11:59:39;;;;;;;8.25;7.45;;;21.90;78.70;;;;;;5897927;29;89129;-70
2022/05/03 12:02:43;;;;;;;11.10;8.00;;;21.90;78.80;;;;;;5917616;29;89181;-69
2022/05/03 12:05:59;;;;;;;8.38;7.65;;;21.90;79.20;;;;;;5918624;29;88964;-70
2022/05/03 12:09:03;;;;;;;8.43;7.63;;;21.90;78.60;;;;;;5921239;29;89441;-70
2022/05/03 12:15:40;;;;;;;8.15;7.35;;;21.90;78.60;;;;;;5835527;29;87779;-69
2022/05/03 12:18:43;;;;;;;8.32;7.53;;;21.90;78.50;;;;;;5925846;29;89109;-71
2022/05/03 12:21:45;;;;;;;7.72;7.05;;;21.90;78.60;;;;;;5915616;29;89091;-71
2022/05/03 12:24:49;;;;;;;8.18;7.38;;;22.00;78.70;;;;;;5914380;29;90151;-70
2022/05/03 12:27:51;;;;;;;9.00;7.50;;;22.00;78.80;;;;;;5919194;29;89233;-70
2022/05/03 12:30:56;;;;;;;8.25;7.45;;;22.00;79.30;;;;;;5928405;29;88071;-69
2022/05/03 12:34:00;;;;;;;7.57;6.88;;;22.00;80.10;;;;;;5907296;29;89074;-70
2022/05/03 12:37:05;;;;;;;7.93;7.22;;;22.00;81.00;;;;;;5926205;29;89146;-69
2022/05/03 12:40:09;;;;;;;7.78;7.07;;;22.10;82.20;;;;;;5919027;29;89075;-70
2022/05/03 12:43:13;;;;;;;7.85;7.15;;;22.10;82.50;;;;;;5933492;29;89247;-69
2022/05/03 12:46:16;;;;;;;8.05;7.35;;;22.10;82.80;;;;;;5915930;29;88441;-70
2022/05/03 12:49:18;;;;;;;7.55;6.85;;;22.10;83.00;;;;;;5913785;29;88030;-70
2022/05/03 12:52:20;;;;;;;9.23;7.25;;;22.10;83.60;;;;;;5928229;29;89135;-70
2022/05/03 12:55:23;;;;;;;8.35;7.55;;;22.10;83.80;;;;;;5922239;29;90536;-69
2022/05/03 12:58:25;;;;;;;8.38;7.30;;;22.20;89.60;;;;;;5925632;29;89267;-69
2022/05/03 13:01:27;;;;;;;7.90;7.10;;;22.20;87.70;;;;;;5922475;29;87760;-69
2022/05/03 13:04:29;;;;;;;8.07;6.95;;;22.30;86.40;;;;;;5920303;29;89395;-69
2022/05/03 13:07:32;;;;;;;7.85;7.10;;;22.30;84.90;;;;;;5934529;29;89355;-69
2022/05/03 13:10:35;;;;;;;7.18;6.47;;;22.30;84.70;;;;;;5923183;29;89476;-69
2022/05/03 13:13:38;;;;;;;7.68;6.97;;;22.30;84.10;;;;;;5915636;29;89495;-69
2022/05/03 13:16:40;;;;;;;7.53;6.60;;;22.30;84.40;;;;;;5924972;29;88381;-69
2022/05/03 13:19:42;;;;;;;6.93;6.32;;;22.20;83.00;;;;;;5914179;29;88080;-69
2022/05/03 13:22:44;;;;;;;7.63;6.53;;;22.20;82.70;;;;;;5932273;29;89153;-69
2022/05/03 13:25:48;;;;;;;7.00;6.40;;;22.20;81.80;;;;;;5909520;29;90032;-68
2022/05/03 13:28:52;;;;;;;8.00;6.50;;;22.20;81.50;;;;;;5920513;29;89420;-69
2022/05/03 13:31:54;;;;;;;7.00;6.30;;;22.20;81.30;;;;;;5900003;29;88892;-70
2022/05/03 13:34:57;;;;;;;7.18;6.47;;;22.20;80.80;;;;;;5903198;29;88057;-68
2022/05/03 13:41:20;;;;;;;7.18;6.50;;;22.20;80.50;;;;;;5919474;29;87313;-70
2022/05/03 13:44:22;;;;;;;6.82;6.22;;;22.20;80.30;;;;;;5917643;29;89026;-69
2022/05/03 13:47:24;;;;;;;6.68;6.05;;;22.10;80.10;;;;;;5914210;29;87271;-69
2022/05/03 13:50:26;;;;;;;7.00;6.38;;;22.10;80.10;;;;;;5925481;29;89457;-69
2022/05/03 13:53:29;;;;;;;6.50;5.90;;;22.10;80.00;;;;;;5922205;29;89073;-70
2022/05/03 13:56:32;;;;;;;6.40;5.80;;;22.10;80.00;;;;;;5911105;29;90295;-69
2022/05/03 13:59:34;;;;;;;6.97;6.18;;;22.10;80.00;;;;;;5913581;29;89170;-69
2022/05/03 14:02:37;;;;;;;6.60;6.00;;;22.10;80.00;;;;;;5927471;29;89040;-69
2022/05/03 14:05:39;;;;;;;6.38;5.75;;;22.10;79.90;;;;;;5915211;29;89223;-70
2022/05/03 14:08:59;;;;;;;7.72;5.80;;;22.10;79.90;;;;;;5915760;29;89160;-70
2022/05/03 14:12:05;;;;;;;6.25;5.72;;;22.10;79.80;;;;;;5912399;29;89011;-70
2022/05/03 14:15:07;;;;;;;6.18;5.68;;;22.00;79.50;;;;;;5904899;29;88024;-70
2022/05/03 14:18:09;;;;;;;6.28;5.68;;;22.10;79.50;;;;;;5922772;29;88376;-69
2022/05/03 14:21:12;;;;;;;6.22;5.63;;;22.10;79.40;;;;;;5915474;29;88050;-70
2022/05/03 14:24:14;;;;;;;6.57;5.80;;;22.10;79.20;;;;;;5916730;29;89143;-69
2022/05/03 14:27:17;;;;;;;6.20;5.60;;;22.10;79.10;;;;;;5915964;29;90082;-70
2022/05/03 14:30:19;;;;;;;5.70;5.20;;;22.10;79.10;;;;;;5917283;29;89027;-68
2022/05/03 14:33:21;;;;;;;6.05;5.45;;;22.00;78.90;;;;;;5911712;29;88107;-70
2022/05/03 14:36:23;;;;;;;5.95;5.40;;;22.00;78.90;;;;;;5915478;29;89221;-69
2022/05/03 14:39:25;;;;;;;5.60;5.10;;;22.00;78.90;;;;;;5915186;29;89038;-68
2022/05/03 14:42:29;;;;;;;5.80;5.25;;;22.00;78.90;;;;;;5926763;29;89039;-70
2022/05/03 14:45:31;;;;;;;5.90;5.40;;;22.00;78.80;;;;;;5924032;29;89160;-70
2022/05/03 14:48:33;;;;;;;5.45;4.97;;;22.00;78.80;;;;;;5916871;29;88392;-70
2022/05/03 14:51:35;;;;;;;5.75;5.20;;;22.00;78.70;;;;;;5930593;29;89449;-70
2022/05/03 14:54:37;;;;;;;6.10;5.50;;;22.00;78.60;;;;;;5916780;29;89134;-69
2022/05/03 15:04:19;;;;;;;5.93;5.32;;;22.00;78.40;;;;;;5915020;29;87351;-70
2022/05/03 15:07:21;;;;;;;5.70;5.20;;;22.00;78.40;;;;;;5905124;29;89030;-69
2022/05/03 15:10:24;;;;;;;5.20;4.80;;;22.00;78.30;;;;;;5912451;29;89156;-71
2022/05/03 15:13:27;;;;;;;5.57;5.07;;;22.10;78.30;;;;;;5914264;29;89123;-70
2022/05/03 15:16:29;;;;;;;5.75;5.22;;;22.10;78.30;;;;;;5913477;29;89045;-70
2022/05/03 15:19:32;;;;;;;5.50;5.00;;;22.00;78.20;;;;;;5926395;29;88409;-71
2022/05/03 15:25:53;;;;;;;5.25;4.75;;;22.00;78.20;;;;;;5915812;29;87459;-70
2022/05/03 15:28:56;;;;;;;5.00;4.60;;;22.00;78.10;;;;;;5924222;29;89960;-69
2022/05/03 15:32:29;;;;;;;5.43;5.00;;;22.00;78.20;;;;;;5916631;29;89144;-70
2022/05/03 15:35:31;;;;;;;5.03;4.60;;;22.00;78.10;;;;;;5912776;29;89268;-70
2022/05/03 15:38:33;;;;;;;5.00;4.60;;;22.00;78.10;;;;;;5915291;29;89042;-69
2022/05/03 15:41:38;;;;;;;5.20;4.80;;;22.00;77.90;;;;;;5922569;29;89472;-70
2022/05/03 15:44:41;;;;;;;5.10;4.65;;;22.00;77.90;;;;;;5924642;29;89180;-70
2022/05/03 15:47:44;;;;;;;5.00;4.60;;;22.00;77.90;;;;;;5906443;29;89129;-70
2022/05/03 15:50:46;;;;;;;4.57;4.18;;;22.00;77.90;;;;;;5922460;29;88402;-70
2022/05/03 15:53:48;;;;;;;5.03;4.63;;;22.00;77.80;;;;;;5912141;29;89084;-70
2022/05/03 15:56:50;;;;;;;4.75;4.35;;;22.00;77.70;;;;;;5912616;29;89240;-70
2022/05/03 15:59:54;;;;;;;4.70;4.30;;;22.00;77.70;;;;;;5910610;29;88953;-70
2022/05/03 16:02:57;;;;;;;4.88;4.47;;;22.00;77.60;;;;;;5912607;29;89229;-70
2022/05/03 16:06:00;;;;;;;4.65;4.25;;;22.00;77.60;;;;;;5921401;29;88177;-74
2022/05/03 16:09:02;;;;;;;5.75;4.80;;;22.00;77.70;;;;;;5919721;29;89618;-70
2022/05/03 16:12:05;;;;;;;4.57;4.18;;;22.00;77.80;;;;;;5908900;29;89115;-71
2022/05/03 16:15:10;;;;;;;4.57;4.18;;;22.00;77.80;;;;;;5908854;29;89028;-70
2022/05/03 16:18:12;;;;;;;4.82;4.40;;;22.00;77.90;;;;;;5918882;29;89359;-70
2022/05/03 16:21:14;;;;;;;4.65;4.22;;;22.00;77.90;;;;;;5909987;29;88373;-70
2022/05/03 16:24:17;;;;;;;4.90;4.50;;;22.00;77.90;;;;;;5902474;29;89190;-71
2022/05/03 16:27:19;;;;;;;4.57;4.18;;;22.00;78.10;;;;;;5912925;29;89463;-71
2022/05/03 16:30:23;;;;;;;5.10;4.30;;;22.00;78.10;;;;;;5871325;29;1251352;-70
2022/05/03 16:33:25;;;;;;;5.28;4.18;;;22.00;78.00;;;;;;5924659;29;89114;-70
2022/05/03 16:43:06;;;;;;;4.50;4.10;;;22.00;77.90;;;;;;5913380;29;88396;-71
2022/05/03 16:46:10;;;;;;;4.40;4.00;;;22.00;77.90;;;;;;5912474;29;88047;-70
2022/05/03 16:49:12;;;;;;;4.45;4.05;;;22.00;77.70;;;;;;5925643;29;89120;-70
2022/05/03 16:52:16;;;;;;;4.25;3.90;;;22.00;77.70;;;;;;5920561;29;88581;-70
2022/05/03 16:55:18;;;;;;;4.50;4.00;;;22.00;77.60;;;;;;5913981;29;89128;-70
2022/05/03 16:58:20;;;;;;;4.60;4.20;;;22.00;77.60;;;;;;5914177;29;89076;-70